createdAt,value
2022-10-12T00:01:40.358Z,100545.75
2022-10-12T00:06:08.795Z,100543.56
2022-10-12T00:10:24.800Z,100541.38
2022-10-12T00:14:40.784Z,100549.31
2022-10-12T00:18:59.548Z,100539.16
2022-10-12T00:23:15.530Z,100546.28
2022-10-12T00:27:31.553Z,100539.72
2022-10-12T00:31:47.612Z,100546.81
2022-10-12T00:36:22.533Z,100544.09
2022-10-12T00:40:38.481Z,100537.47
2022-10-12T00:44:54.574Z,100541.91
2022-10-12T00:49:20.457Z,100537.53
2022-10-12T00:53:42.814Z,100541.34
2022-10-12T00:57:58.993Z,100544.91
2022-10-12T01:02:15.225Z,100538.06
2022-10-12T01:06:31.848Z,100538.63
2022-10-12T01:10:47.858Z,100537.53
2022-10-12T01:15:04.544Z,100542.41
2022-10-12T01:19:38.409Z,100549.03
2022-10-12T01:24:09.540Z,100544.09
2022-10-12T01:28:43.162Z,100547.94
2022-10-12T01:32:59.079Z,100551.50
2022-10-12T01:37:29.742Z,100549.84
2022-10-12T01:41:52.594Z,100555.06
2022-10-12T01:46:17.418Z,100546.81
2022-10-12T01:50:50.987Z,100562.47
2022-10-12T01:55:09.885Z,100556.41
2022-10-12T02:00:09.594Z,100554.53
2022-10-12T02:04:37.576Z,100565.22
2022-10-12T02:09:09.853Z,100557.81
2022-10-12T02:13:29.496Z,100561.94
2022-10-12T02:17:47.773Z,100558.34
2022-10-12T02:22:06.269Z,100550.66
2022-10-12T02:26:22.884Z,100560.56
2022-10-12T02:30:48.994Z,100559.16
2022-10-12T02:35:08.072Z,100559.44
2022-10-12T02:39:38.460Z,100558.63
2022-10-12T02:44:01.307Z,100554.53
2022-10-12T02:48:23.432Z,100558.06
2022-10-12T02:52:39.717Z,100566.03
2022-10-12T02:56:55.663Z,100558.34
2022-10-12T03:01:12.278Z,100558.34
2022-10-12T03:05:28.316Z,100550.69
2022-10-12T03:09:44.234Z,100556.72
2022-10-12T03:14:00.339Z,100552.28
2022-10-12T03:18:16.246Z,100559.16
2022-10-12T03:22:32.302Z,100558.84
2022-10-12T03:26:48.254Z,100559.44
2022-10-12T03:31:04.744Z,100562.47
2022-10-12T03:35:20.698Z,100554.78
2022-10-12T03:39:36.723Z,100556.44
2022-10-12T03:43:52.671Z,100557.28
2022-10-12T03:48:09.324Z,100548.50
2022-10-12T03:52:25.357Z,100552.59
2022-10-12T03:56:41.475Z,100568.22
2022-10-12T04:00:57.601Z,100550.97
2022-10-12T04:05:13.567Z,100554.53
2022-10-12T04:09:29.584Z,100557.25
2022-10-12T04:13:48.664Z,100554.53
2022-10-12T04:18:04.835Z,100553.97
2022-10-12T04:22:20.857Z,100555.34
2022-10-12T04:26:36.813Z,100553.13
2022-10-12T04:30:52.741Z,100552.84
2022-10-12T04:35:09.196Z,100546.31
2022-10-12T04:39:25.185Z,100547.66
2022-10-12T04:43:41.142Z,100551.25
2022-10-12T04:47:57.167Z,100553.41
2022-10-12T04:52:13.240Z,100565.75
2022-10-12T04:56:29.204Z,100565.22
2022-10-12T05:00:45.555Z,100564.94
2022-10-12T05:05:01.504Z,100575.31
2022-10-12T05:09:17.540Z,100577.81
2022-10-12T05:13:33.562Z,100581.38
2022-10-12T05:17:49.494Z,100581.38
2022-10-12T05:22:05.480Z,100590.16
2022-10-12T05:26:21.486Z,100585.47
2022-10-12T05:30:37.457Z,100589.87
2022-10-12T05:34:55.225Z,100598.91
2022-10-12T05:39:11.213Z,100599.19
2022-10-12T05:43:27.154Z,100600.50
2022-10-12T05:47:43.082Z,100598.47
2022-10-12T05:51:59.037Z,100598.97
2022-10-12T05:56:15.096Z,100607.06
2022-10-12T06:00:31.063Z,100605.91
2022-10-12T06:04:46.974Z,100610.31
2022-10-12T06:09:02.929Z,100610.03
2022-10-12T06:13:19.844Z,100596.03
2022-10-12T06:17:35.839Z,100605.97
2022-10-12T06:21:51.838Z,100599.37
2022-10-12T06:26:07.869Z,100596.69
2022-10-12T06:30:23.960Z,100616.44
2022-10-12T06:34:39.983Z,100623.56
2022-10-12T06:38:56.310Z,100621.94
2022-10-12T06:43:12.745Z,100625.78
2022-10-12T06:47:28.740Z,100631.50
2022-10-12T06:51:44.735Z,100625.72
2022-10-12T06:56:05.349Z,100628.75
2022-10-12T07:00:21.404Z,100633.47
2022-10-12T07:04:37.356Z,100640.56
2022-10-12T07:08:54.973Z,100644.66
2022-10-12T07:13:10.956Z,100650.97
2022-10-12T07:17:27.002Z,100655.34
2022-10-12T07:21:43.082Z,100637.69
2022-10-12T07:25:59.286Z,100644.34
2022-10-12T07:30:15.297Z,100650.75
2022-10-12T07:34:31.254Z,100646.84
2022-10-12T07:38:48.918Z,100642.28
2022-10-12T07:43:15.589Z,100636.22
2022-10-12T07:47:32.638Z,100631.09
2022-10-12T07:51:48.591Z,100627.69
2022-10-12T07:56:07.194Z,100637.19
2022-10-12T08:00:23.428Z,100643.72
2022-10-12T08:04:39.382Z,100654.47
2022-10-12T08:08:55.511Z,100658.06
2022-10-12T08:13:11.470Z,100647.50
2022-10-12T08:17:27.478Z,100649.44
2022-10-12T08:21:43.537Z,100648.09
2022-10-12T08:25:59.559Z,100651.91
2022-10-12T08:30:15.584Z,100646.09
2022-10-12T08:34:31.644Z,100639.63
2022-10-12T08:38:55.156Z,100644.63
2022-10-12T08:43:23.391Z,100638.41
2022-10-12T08:47:42.994Z,100639.12
2022-10-12T08:52:02.800Z,100640.06
2022-10-12T08:56:20.046Z,100632.59
2022-10-12T09:00:36.052Z,100633.72
2022-10-12T09:05:00.123Z,100637.81
2022-10-12T09:09:52.881Z,100636.16
2022-10-12T09:14:27.621Z,100624.38
2022-10-12T09:18:49.028Z,100635.31
2022-10-12T09:23:19.787Z,100633.87
2022-10-12T09:27:36.005Z,100635.94
2022-10-12T09:31:58.163Z,100633.91
2022-10-12T09:36:19.537Z,100640.78
2022-10-12T09:40:35.519Z,100636.09
2022-10-12T09:44:57.283Z,100644.19
2022-10-12T09:49:13.226Z,100651.19
2022-10-12T09:53:40.004Z,100647.44
2022-10-12T09:57:59.142Z,100651.25
2022-10-12T10:02:20.820Z,100640.00
2022-10-12T10:06:38.461Z,100649.09
2022-10-12T10:11:00.990Z,100647.88
2022-10-12T10:15:28.896Z,100649.63
2022-10-12T10:19:50.567Z,100638.25
2022-10-12T10:24:25.072Z,100640.87
2022-10-12T10:28:46.425Z,100634.06
2022-10-12T10:33:17.799Z,100630.59
2022-10-12T10:37:35.083Z,100627.41
2022-10-12T10:41:51.825Z,100625.81
2022-10-12T10:46:08.537Z,100628.59
2022-10-12T10:50:27.470Z,100627.03
2022-10-12T10:54:43.523Z,100622.25
2022-10-12T10:59:12.910Z,100621.06
2022-10-12T11:04:07.623Z,100619.03
2022-10-12T11:08:26.839Z,100614.53
2022-10-12T11:12:46.808Z,100618.91
2022-10-12T11:17:07.043Z,100615.44
2022-10-12T11:21:39.099Z,100615.75
2022-10-12T11:26:04.108Z,100618.00
2022-10-12T11:30:26.863Z,100611.44
2022-10-12T11:35:23.780Z,100608.16
2022-10-12T11:39:45.311Z,100615.72
2022-10-12T11:44:04.025Z,100618.16
2022-10-12T11:48:35.109Z,100612.63
2022-10-12T11:52:53.563Z,100611.44
2022-10-12T11:57:22.299Z,100607.97
2022-10-12T12:01:49.580Z,100603.69
2022-10-12T12:06:52.043Z,100601.47
2022-10-12T12:11:21.745Z,100599.44
2022-10-12T12:15:42.372Z,100598.31
2022-10-12T12:20:00.934Z,100607.09
2022-10-12T12:24:17.500Z,100605.16
2022-10-12T12:28:33.892Z,100596.91
2022-10-12T12:32:52.941Z,100601.97
2022-10-12T12:37:12.850Z,100601.91
2022-10-12T12:41:55.193Z,100596.34
2022-10-12T12:46:14.557Z,100601.31
2022-10-12T12:50:36.777Z,100590.81
2022-10-12T12:54:58.534Z,100584.03
2022-10-12T12:59:23.263Z,100585.34
2022-10-12T13:04:01.465Z,100588.19
2022-10-12T13:08:39.765Z,100584.91
2022-10-12T13:13:17.489Z,100581.75
2022-10-12T13:17:59.010Z,100579.56
2022-10-12T13:22:22.495Z,100578.72
2022-10-12T13:26:40.600Z,100579.75
2022-10-12T13:31:09.605Z,100574.53
2022-10-12T13:35:37.124Z,100567.41
2022-10-12T13:39:54.574Z,100572.78
2022-10-12T13:44:21.909Z,100560.34
2022-10-12T13:48:58.653Z,100569.59
2022-10-12T13:53:15.042Z,100559.81
2022-10-12T13:57:50.173Z,100564.19
2022-10-12T14:02:24.610Z,100568.63
2022-10-12T14:06:40.599Z,100559.47
2022-10-12T14:10:57.874Z,100563.88
2022-10-12T14:15:15.025Z,100560.41
2022-10-12T14:19:34.123Z,100567.25
2022-10-12T14:23:56.096Z,100556.59
2022-10-12T14:28:29.143Z,100556.91
2022-10-12T14:32:46.620Z,100545.41
2022-10-12T14:37:17.979Z,100551.28
2022-10-12T14:41:43.348Z,100553.88
2022-10-12T14:45:59.317Z,100548.53
2022-10-12T14:50:19.454Z,100541.97
2022-10-12T14:54:35.450Z,100537.03
2022-10-12T14:58:51.390Z,100538.00
2022-10-12T15:03:07.392Z,100535.94
2022-10-12T15:07:26.276Z,100537.31
2022-10-12T15:11:42.289Z,100542.84
2022-10-12T15:16:00.784Z,100552.19
2022-10-12T15:20:16.784Z,100549.84
2022-10-12T15:24:32.920Z,100539.56
2022-10-12T15:28:48.968Z,100542.91
2022-10-12T15:33:05.883Z,100541.78
2022-10-12T15:37:21.914Z,100541.19
2022-10-12T15:41:37.960Z,100533.19
2022-10-12T15:45:56.582Z,100533.13
2022-10-12T15:50:13.417Z,100528.50
2022-10-12T15:54:29.356Z,100533.62
2022-10-12T15:58:45.688Z,100531.47
2022-10-12T16:03:02.133Z,100531.25
2022-10-12T16:07:18.138Z,100532.03
2022-10-12T16:11:34.146Z,100527.47
2022-10-12T16:15:50.183Z,100528.06
2022-10-12T16:20:08.323Z,100533.78
2022-10-12T16:24:24.683Z,100537.00
2022-10-12T16:28:40.731Z,100542.13
2022-10-12T16:32:56.779Z,100542.66
2022-10-12T16:37:12.916Z,100548.22
2022-10-12T16:41:31.762Z,100545.87
2022-10-12T16:45:56.060Z,100549.41
2022-10-12T16:50:12.257Z,100549.13
2022-10-12T16:54:29.071Z,100548.63
2022-10-12T16:58:45.015Z,100559.56
2022-10-12T17:03:00.975Z,100558.22
2022-10-12T17:07:17.122Z,100558.00
2022-10-12T17:11:36.309Z,100559.00
2022-10-12T17:15:52.265Z,100560.09
2022-10-12T17:20:08.694Z,100559.81
2022-10-12T17:24:26.424Z,100566.63
2022-10-12T17:28:42.608Z,100572.94
2022-10-12T17:32:58.584Z,100562.59
2022-10-12T17:37:14.918Z,100567.97
2022-10-12T17:41:30.931Z,100570.28
2022-10-12T17:45:46.845Z,100563.63
2022-10-12T17:50:02.843Z,100569.56
2022-10-12T17:54:20.128Z,100573.09
2022-10-12T17:58:39.094Z,100569.66
2022-10-12T18:02:55.121Z,100577.44
2022-10-12T18:07:11.220Z,100573.56
2022-10-12T18:11:27.231Z,100573.16
2022-10-12T18:15:44.250Z,100565.25
2022-10-12T18:20:00.504Z,100561.31
2022-10-12T18:24:17.716Z,100561.72
2022-10-12T18:28:34.528Z,100557.69
2022-10-12T18:32:50.575Z,100564.59
2022-10-12T18:37:06.891Z,100569.19
2022-10-12T18:41:23.642Z,100581.47
2022-10-12T18:45:44.368Z,100586.94
2022-10-12T18:50:00.394Z,100580.06
2022-10-12T18:54:17.282Z,100573.97
2022-10-12T18:58:33.252Z,100573.91
2022-10-12T19:02:49.235Z,100578.75
2022-10-12T19:07:05.210Z,100578.34
2022-10-12T19:11:22.272Z,100578.31
2022-10-12T19:15:38.464Z,100573.63
2022-10-12T19:19:54.553Z,100581.12
2022-10-12T19:24:12.502Z,100573.97
2022-10-12T19:28:28.572Z,100573.97
2022-10-12T19:32:46.982Z,100567.03
2022-10-12T19:37:03.209Z,100573.84
2022-10-12T19:41:19.396Z,100578.94
2022-10-12T19:45:39.792Z,100579.31
2022-10-12T19:49:56.163Z,100580.34
2022-10-12T19:54:13.604Z,100576.03
2022-10-12T19:58:29.605Z,100582.22
2022-10-12T20:02:45.714Z,100596.28
2022-10-12T20:07:01.645Z,100576.16
2022-10-12T20:11:24.517Z,100580.00
2022-10-12T20:15:40.986Z,100582.75
2022-10-12T20:19:57.070Z,100581.69
2022-10-12T20:24:13.075Z,100582.44
2022-10-12T20:28:29.043Z,100582.69
2022-10-12T20:32:45.067Z,100588.22
2022-10-12T20:37:01.336Z,100589.84
2022-10-12T20:41:22.979Z,100591.19
2022-10-12T20:45:39.421Z,100587.78
2022-10-12T20:49:55.374Z,100587.44
2022-10-12T20:54:18.256Z,100593.25
2022-10-12T20:58:34.536Z,100590.13
2022-10-12T21:02:50.454Z,100596.09
2022-10-12T21:07:06.453Z,100593.66
2022-10-12T21:11:22.930Z,100589.94
2022-10-12T21:15:38.875Z,100586.84
2022-10-12T21:19:54.806Z,100588.16
2022-10-12T21:24:11.167Z,100587.59
2022-10-12T21:28:27.425Z,100586.78
2022-10-12T21:32:43.433Z,100588.31
2022-10-12T21:36:59.410Z,100590.50
2022-10-12T21:41:16.989Z,100594.91
2022-10-12T21:45:33.863Z,100587.28
2022-10-12T21:49:49.770Z,100583.94
2022-10-12T21:54:06.846Z,100593.06
2022-10-12T21:58:23.011Z,100593.03
2022-10-12T22:02:39.038Z,100592.22
2022-10-12T22:06:59.656Z,100597.19
2022-10-12T22:11:16.556Z,100595.53
2022-10-12T22:15:32.737Z,100589.25
2022-10-12T22:19:48.703Z,100590.06
2022-10-12T22:24:04.904Z,100596.94
2022-10-12T22:28:20.910Z,100591.19
2022-10-12T22:32:36.954Z,100591.16
2022-10-12T22:36:53.017Z,100581.00
2022-10-12T22:41:12.504Z,100581.31
2022-10-12T22:45:28.533Z,100582.44
2022-10-12T22:49:44.510Z,100587.31
2022-10-12T22:54:01.135Z,100584.03
2022-10-12T22:58:17.095Z,100576.03
2022-10-12T23:02:33.090Z,100585.75
2022-10-12T23:06:49.116Z,100583.00
2022-10-12T23:11:06.715Z,100583.00
2022-10-12T23:15:22.722Z,100595.03
2022-10-12T23:19:38.655Z,100587.66
2022-10-12T23:23:54.595Z,100586.88
2022-10-12T23:28:10.584Z,100589.56
2022-10-12T23:32:26.504Z,100580.00
2022-10-12T23:36:42.514Z,100578.34
2022-10-12T23:40:58.953Z,100577.00
2022-10-12T23:45:15.092Z,100570.44
2022-10-12T23:49:31.007Z,100581.94
2022-10-12T23:53:47.075Z,100583.56
2022-10-12T23:58:03.415Z,100589.56
